sensor_id;sensor_type;location;lat;lon;timestamp;P1;durP1;ratioP1;P2;durP2;ratioP2
30335;SDS011;17142;47.990;7.846;2024-03-22T00:00:33;5.33;;;4.83;;
30335;SDS011;17142;47.990;7.846;2024-03-22T00:02:58;6.83;;;3.70;;
30335;SDS011;17142;47.990;7.846;2024-03-22T00:05:26;7.23;;;4.70;;
30335;SDS011;17142;47.990;7.846;2024-03-22T00:07:54;7.90;;;5.80;;
30335;SDS011;17142;47.990;7.846;2024-03-22T00:10:30;8.50;;;4.37;;
30335;SDS011;17142;47.990;7.846;2024-03-22T00:12:58;9.30;;;4.80;;
30335;SDS011;17142;47.990;7.846;2024-03-22T00:15:26;4.17;;;3.60;;
30335;SDS011;17142;47.990;7.846;2024-03-22T00:17:56;7.17;;;4.97;;
30335;SDS011;17142;47.990;7.846;2024-03-22T00:20:22;8.23;;;5.43;;
30335;SDS011;17142;47.990;7.846;2024-03-22T00:22:48;6.17;;;4.27;;
30335;SDS011;17142;47.990;7.846;2024-03-22T00:25:24;2.93;;;2.73;;
30335;SDS011;17142;47.990;7.846;2024-03-22T00:27:52;5.63;;;4.70;;
30335;SDS011;17142;47.990;7.846;2024-03-22T00:30:20;5.80;;;4.30;;
30335;SDS011;17142;47.990;7.846;2024-03-22T00:32:46;6.87;;;4.67;;
30335;SDS011;17142;47.990;7.846;2024-03-22T00:35:12;5.50;;;4.60;;
30335;SDS011;17142;47.990;7.846;2024-03-22T00:37:40;6.27;;;5.10;;
30335;SDS011;17142;47.990;7.846;2024-03-22T00:40:08;6.47;;;4.70;;
30335;SDS011;17142;47.990;7.846;2024-03-22T00:42:34;5.80;;;5.17;;
30335;SDS011;17142;47.990;7.846;2024-03-22T00:45:00;8.03;;;4.93;;
30335;SDS011;17142;47.990;7.846;2024-03-22T00:47:30;5.13;;;4.63;;
30335;SDS011;17142;47.990;7.846;2024-03-22T00:49:58;7.50;;;4.93;;
30335;SDS011;17142;47.990;7.846;2024-03-22T00:52:23;5.70;;;5.17;;
30335;SDS011;17142;47.990;7.846;2024-03-22T00:54:50;10.67;;;5.83;;
30335;SDS011;17142;47.990;7.846;2024-03-22T00:57:15;5.53;;;4.60;;
30335;SDS011;17142;47.990;7.846;2024-03-22T00:59:44;5.47;;;4.17;;
30335;SDS011;17142;47.990;7.846;2024-03-22T01:02:09;6.87;;;6.17;;
30335;SDS011;17142;47.990;7.846;2024-03-22T01:04:35;4.80;;;4.40;;
30335;SDS011;17142;47.990;7.846;2024-03-22T01:07:00;6.23;;;4.77;;
30335;SDS011;17142;47.990;7.846;2024-03-22T01:09:26;5.63;;;4.37;;
30335;SDS011;17142;47.990;7.846;2024-03-22T01:11:56;10.87;;;5.20;;
30335;SDS011;17142;47.990;7.846;2024-03-22T01:14:25;4.77;;;4.27;;
30335;SDS011;17142;47.990;7.846;2024-03-22T01:16:51;5.03;;;4.57;;
30335;SDS011;17142;47.990;7.846;2024-03-22T01:19:22;5.93;;;4.20;;
30335;SDS011;17142;47.990;7.846;2024-03-22T01:21:48;6.50;;;4.30;;
30335;SDS011;17142;47.990;7.846;2024-03-22T01:24:16;4.23;;;3.13;;
30335;SDS011;17142;47.990;7.846;2024-03-22T01:26:42;7.03;;;3.50;;
30335;SDS011;17142;47.990;7.846;2024-03-22T01:29:07;7.47;;;5.20;;
30335;SDS011;17142;47.990;7.846;2024-03-22T01:31:33;6.23;;;4.17;;
30335;SDS011;17142;47.990;7.846;2024-03-22T01:33:59;5.40;;;4.33;;
30335;SDS011;17142;47.990;7.846;2024-03-22T01:36:24;5.13;;;4.43;;
30335;SDS011;17142;47.990;7.846;2024-03-22T01:38:50;9.77;;;5.90;;
30335;SDS011;17142;47.990;7.846;2024-03-22T01:41:18;7.97;;;7.20;;
30335;SDS011;17142;47.990;7.846;2024-03-22T01:43:46;7.77;;;4.97;;
30335;SDS011;17142;47.990;7.846;2024-03-22T01:46:14;7.23;;;5.50;;
30335;SDS011;17142;47.990;7.846;2024-03-22T01:48:39;5.90;;;5.40;;
30335;SDS011;17142;47.990;7.846;2024-03-22T01:51:07;10.60;;;4.97;;
30335;SDS011;17142;47.990;7.846;2024-03-22T01:53:37;7.07;;;4.90;;
30335;SDS011;17142;47.990;7.846;2024-03-22T01:56:03;5.23;;;4.60;;
30335;SDS011;17142;47.990;7.846;2024-03-22T01:58:34;8.53;;;4.57;;
30335;SDS011;17142;47.990;7.846;2024-03-22T02:01:02;5.87;;;4.70;;
30335;SDS011;17142;47.990;7.846;2024-03-22T02:03:28;9.10;;;5.30;;
30335;SDS011;17142;47.990;7.846;2024-03-22T02:05:54;6.07;;;5.20;;
30335;SDS011;17142;47.990;7.846;2024-03-22T02:08:19;6.33;;;5.50;;
30335;SDS011;17142;47.990;7.846;2024-03-22T02:10:45;5.87;;;4.53;;
30335;SDS011;17142;47.990;7.846;2024-03-22T02:13:11;8.73;;;5.23;;
30335;SDS011;17142;47.990;7.846;2024-03-22T02:15:41;6.40;;;5.23;;
30335;SDS011;17142;47.990;7.846;2024-03-22T02:18:07;4.47;;;3.97;;
30335;SDS011;17142;47.990;7.846;2024-03-22T02:20:35;5.23;;;4.70;;
30335;SDS011;17142;47.990;7.846;2024-03-22T02:23:06;8.77;;;5.33;;
30335;SDS011;17142;47.990;7.846;2024-03-22T02:25:31;8.43;;;6.07;;
30335;SDS011;17142;47.990;7.846;2024-03-22T02:27:57;5.03;;;4.60;;
30335;SDS011;17142;47.990;7.846;2024-03-22T02:30:25;10.60;;;5.00;;
30335;SDS011;17142;47.990;7.846;2024-03-22T02:32:50;7.07;;;4.27;;
30335;SDS011;17142;47.990;7.846;2024-03-22T02:35:16;7.00;;;4.50;;
30335;SDS011;17142;47.990;7.846;2024-03-22T02:37:41;7.40;;;4.87;;
30335;SDS011;17142;47.990;7.846;2024-03-22T02:40:07;5.67;;;3.50;;
30335;SDS011;17142;47.990;7.846;2024-03-22T02:42:33;7.13;;;4.13;;
30335;SDS011;17142;47.990;7.846;2024-03-22T02:44:59;8.80;;;5.10;;
30335;SDS011;17142;47.990;7.846;2024-03-22T02:47:27;7.47;;;5.20;;
30335;SDS011;17142;47.990;7.846;2024-03-22T02:49:53;5.23;;;4.17;;
30335;SDS011;17142;47.990;7.846;2024-03-22T02:52:18;6.07;;;5.47;;
30335;SDS011;17142;47.990;7.846;2024-03-22T02:54:44;4.93;;;4.40;;
30335;SDS011;17142;47.990;7.846;2024-03-22T02:57:10;4.83;;;4.17;;
30335;SDS011;17142;47.990;7.846;2024-03-22T02:59:35;14.77;;;7.83;;
30335;SDS011;17142;47.990;7.846;2024-03-22T03:02:06;5.97;;;4.87;;
30335;SDS011;17142;47.990;7.846;2024-03-22T03:04:34;5.80;;;4.63;;
30335;SDS011;17142;47.990;7.846;2024-03-22T03:07:02;6.83;;;4.93;;
30335;SDS011;17142;47.990;7.846;2024-03-22T03:09:33;10.70;;;5.70;;
30335;SDS011;17142;47.990;7.846;2024-03-22T03:12:02;8.03;;;5.90;;
30335;SDS011;17142;47.990;7.846;2024-03-22T03:14:30;5.43;;;4.20;;
30335;SDS011;17142;47.990;7.846;2024-03-22T03:16:58;5.40;;;4.43;;
30335;SDS011;17142;47.990;7.846;2024-03-22T03:19:24;7.10;;;4.97;;
30335;SDS011;17142;47.990;7.846;2024-03-22T03:21:50;6.07;;;5.10;;
30335;SDS011;17142;47.990;7.846;2024-03-22T03:24:15;7.00;;;4.30;;
30335;SDS011;17142;47.990;7.846;2024-03-22T03:26:41;6.60;;;5.93;;
30335;SDS011;17142;47.990;7.846;2024-03-22T03:29:06;5.73;;;4.73;;
30335;SDS011;17142;47.990;7.846;2024-03-22T03:31:32;8.27;;;5.70;;
30335;SDS011;17142;47.990;7.846;2024-03-22T03:34:00;7.33;;;6.00;;
30335;SDS011;17142;47.990;7.846;2024-03-22T03:36:28;6.23;;;4.77;;
30335;SDS011;17142;47.990;7.846;2024-03-22T03:38:54;9.23;;;6.30;;
30335;SDS011;17142;47.990;7.846;2024-03-22T03:41:19;9.20;;;5.97;;
30335;SDS011;17142;47.990;7.846;2024-03-22T03:43:47;6.13;;;4.37;;
30335;SDS011;17142;47.990;7.846;2024-03-22T03:46:15;8.80;;;5.83;;
30335;SDS011;17142;47.990;7.846;2024-03-22T03:48:43;5.50;;;4.30;;
30335;SDS011;17142;47.990;7.846;2024-03-22T03:51:14;5.57;;;5.03;;
30335;SDS011;17142;47.990;7.846;2024-03-22T03:53:40;5.87;;;3.80;;
30335;SDS011;17142;47.990;7.846;2024-03-22T03:56:10;7.30;;;5.60;;
30335;SDS011;17142;47.990;7.846;2024-03-22T03:58:36;4.97;;;4.50;;
30335;SDS011;17142;47.990;7.846;2024-03-22T04:01:05;7.70;;;5.20;;
30335;SDS011;17142;47.990;7.846;2024-03-22T04:03:31;7.83;;;5.03;;
30335;SDS011;17142;47.990;7.846;2024-03-22T04:05:59;6.50;;;4.53;;
30335;SDS011;17142;47.990;7.846;2024-03-22T04:08:28;14.30;;;6.23;;
30335;SDS011;17142;47.990;7.846;2024-03-22T04:10:56;5.80;;;3.90;;
30335;SDS011;17142;47.990;7.846;2024-03-22T04:13:25;7.03;;;5.20;;
30335;SDS011;17142;47.990;7.846;2024-03-22T04:15:51;6.40;;;4.60;;
30335;SDS011;17142;47.990;7.846;2024-03-22T04:18:17;8.60;;;5.03;;
30335;SDS011;17142;47.990;7.846;2024-03-22T04:20:52;6.73;;;4.63;;
30335;SDS011;17142;47.990;7.846;2024-03-22T04:23:24;5.00;;;4.50;;
30335;SDS011;17142;47.990;7.846;2024-03-22T04:28:28;6.57;;;5.40;;
30335;SDS011;17142;47.990;7.846;2024-03-22T04:31:01;5.87;;;5.13;;
30335;SDS011;17142;47.990;7.846;2024-03-22T04:33:27;8.17;;;5.30;;
30335;SDS011;17142;47.990;7.846;2024-03-22T04:35:59;8.73;;;5.80;;
30335;SDS011;17142;47.990;7.846;2024-03-22T04:38:27;5.63;;;4.20;;
30335;SDS011;17142;47.990;7.846;2024-03-22T04:40:54;6.37;;;5.03;;
30335;SDS011;17142;47.990;7.846;2024-03-22T04:43:23;14.57;;;6.90;;
30335;SDS011;17142;47.990;7.846;2024-03-22T04:45:51;6.37;;;4.87;;
30335;SDS011;17142;47.990;7.846;2024-03-22T04:48:20;9.30;;;6.47;;
30335;SDS011;17142;47.990;7.846;2024-03-22T04:50:47;9.57;;;6.20;;
30335;SDS011;17142;47.990;7.846;2024-03-22T04:53:15;7.53;;;5.40;;
30335;SDS011;17142;47.990;7.846;2024-03-22T04:55:48;10.63;;;4.90;;
30335;SDS011;17142;47.990;7.846;2024-03-22T05:00:44;8.10;;;6.23;;
30335;SDS011;17142;47.990;7.846;2024-03-22T05:03:13;14.03;;;6.40;;
30335;SDS011;17142;47.990;7.846;2024-03-22T05:05:42;7.80;;;4.63;;
30335;SDS011;17142;47.990;7.846;2024-03-22T05:08:13;7.10;;;5.50;;
30335;SDS011;17142;47.990;7.846;2024-03-22T05:10:38;5.47;;;4.97;;
30335;SDS011;17142;47.990;7.846;2024-03-22T05:13:04;5.07;;;4.53;;
30335;SDS011;17142;47.990;7.846;2024-03-22T05:15:32;6.50;;;5.43;;
30335;SDS011;17142;47.990;7.846;2024-03-22T05:18:00;4.27;;;3.63;;
30335;SDS011;17142;47.990;7.846;2024-03-22T05:20:26;8.60;;;6.73;;
30335;SDS011;17142;47.990;7.846;2024-03-22T05:22:52;11.40;;;4.20;;
30335;SDS011;17142;47.990;7.846;2024-03-22T05:25:18;6.57;;;4.73;;
30335;SDS011;17142;47.990;7.846;2024-03-22T05:27:46;5.73;;;5.10;;
30335;SDS011;17142;47.990;7.846;2024-03-22T05:30:15;9.30;;;4.70;;
30335;SDS011;17142;47.990;7.846;2024-03-22T05:32:40;8.07;;;4.63;;
30335;SDS011;17142;47.990;7.846;2024-03-22T05:35:09;6.57;;;4.93;;
30335;SDS011;17142;47.990;7.846;2024-03-22T05:37:37;5.37;;;4.90;;
30335;SDS011;17142;47.990;7.846;2024-03-22T05:40:06;5.73;;;4.87;;
30335;SDS011;17142;47.990;7.846;2024-03-22T05:42:33;6.43;;;5.07;;
30335;SDS011;17142;47.990;7.846;2024-03-22T05:45:01;4.97;;;4.53;;
30335;SDS011;17142;47.990;7.846;2024-03-22T05:47:30;6.40;;;5.60;;
30335;SDS011;17142;47.990;7.846;2024-03-22T05:49:56;5.50;;;4.83;;
30335;SDS011;17142;47.990;7.846;2024-03-22T05:52:22;6.37;;;5.20;;
30335;SDS011;17142;47.990;7.846;2024-03-22T05:54:48;6.17;;;5.47;;
30335;SDS011;17142;47.990;7.846;2024-03-22T05:57:14;5.87;;;4.70;;
30335;SDS011;17142;47.990;7.846;2024-03-22T05:59:42;7.90;;;6.17;;
30335;SDS011;17142;47.990;7.846;2024-03-22T06:02:07;7.90;;;6.53;;
30335;SDS011;17142;47.990;7.846;2024-03-22T06:04:33;6.47;;;4.73;;
30335;SDS011;17142;47.990;7.846;2024-03-22T06:06:59;6.33;;;4.33;;
30335;SDS011;17142;47.990;7.846;2024-03-22T06:09:29;7.17;;;4.87;;
30335;SDS011;17142;47.990;7.846;2024-03-22T06:12:14;6.37;;;5.50;;
30335;SDS011;17142;47.990;7.846;2024-03-22T06:14:43;7.60;;;4.37;;
30335;SDS011;17142;47.990;7.846;2024-03-22T06:17:09;9.93;;;5.40;;
30335;SDS011;17142;47.990;7.846;2024-03-22T06:19:35;6.97;;;5.27;;
30335;SDS011;17142;47.990;7.846;2024-03-22T06:22:01;6.63;;;5.00;;
30335;SDS011;17142;47.990;7.846;2024-03-22T06:24:29;6.93;;;5.10;;
30335;SDS011;17142;47.990;7.846;2024-03-22T06:27:07;5.20;;;4.13;;
30335;SDS011;17142;47.990;7.846;2024-03-22T06:29:34;6.03;;;4.00;;
30335;SDS011;17142;47.990;7.846;2024-03-22T06:32:00;4.40;;;3.80;;
30335;SDS011;17142;47.990;7.846;2024-03-22T06:34:26;10.00;;;5.47;;
30335;SDS011;17142;47.990;7.846;2024-03-22T06:36:51;5.83;;;4.70;;
30335;SDS011;17142;47.990;7.846;2024-03-22T06:39:17;5.33;;;3.43;;
30335;SDS011;17142;47.990;7.846;2024-03-22T06:41:42;12.07;;;5.90;;
30335;SDS011;17142;47.990;7.846;2024-03-22T06:44:16;15.60;;;4.73;;
30335;SDS011;17142;47.990;7.846;2024-03-22T06:46:44;6.23;;;3.90;;
30335;SDS011;17142;47.990;7.846;2024-03-22T06:49:13;7.17;;;5.00;;
30335;SDS011;17142;47.990;7.846;2024-03-22T06:51:38;5.80;;;4.70;;
30335;SDS011;17142;47.990;7.846;2024-03-22T06:54:06;6.43;;;4.90;;
30335;SDS011;17142;47.990;7.846;2024-03-22T06:56:32;27.53;;;16.93;;
30335;SDS011;17142;47.990;7.846;2024-03-22T06:58:57;7.03;;;5.00;;
30335;SDS011;17142;47.990;7.846;2024-03-22T07:01:23;6.40;;;4.90;;
30335;SDS011;17142;47.990;7.846;2024-03-22T07:03:49;5.40;;;3.77;;
30335;SDS011;17142;47.990;7.846;2024-03-22T07:06:19;7.10;;;4.57;;
30335;SDS011;17142;47.990;7.846;2024-03-22T07:08:45;5.40;;;4.47;;
30335;SDS011;17142;47.990;7.846;2024-03-22T07:11:13;4.10;;;3.70;;
30335;SDS011;17142;47.990;7.846;2024-03-22T07:13:41;5.93;;;3.90;;
30335;SDS011;17142;47.990;7.846;2024-03-22T07:16:19;6.00;;;4.10;;
30335;SDS011;17142;47.990;7.846;2024-03-22T07:18:45;19.20;;;4.30;;
30335;SDS011;17142;47.990;7.846;2024-03-22T07:21:14;4.23;;;3.60;;
30335;SDS011;17142;47.990;7.846;2024-03-22T07:23:41;6.43;;;4.53;;
30335;SDS011;17142;47.990;7.846;2024-03-22T07:26:13;4.10;;;3.40;;
30335;SDS011;17142;47.990;7.846;2024-03-22T07:28:41;4.57;;;4.10;;
30335;SDS011;17142;47.990;7.846;2024-03-22T07:31:16;4.50;;;3.57;;
30335;SDS011;17142;47.990;7.846;2024-03-22T07:33:41;6.30;;;4.13;;
30335;SDS011;17142;47.990;7.846;2024-03-22T07:36:07;7.10;;;4.00;;
30335;SDS011;17142;47.990;7.846;2024-03-22T07:38:32;5.63;;;4.97;;
30335;SDS011;17142;47.990;7.846;2024-03-22T07:41:01;5.10;;;3.47;;
30335;SDS011;17142;47.990;7.846;2024-03-22T07:43:26;6.83;;;4.20;;
30335;SDS011;17142;47.990;7.846;2024-03-22T07:45:52;5.70;;;3.70;;
30335;SDS011;17142;47.990;7.846;2024-03-22T07:48:18;6.10;;;4.00;;
30335;SDS011;17142;47.990;7.846;2024-03-22T07:50:46;4.00;;;2.90;;
30335;SDS011;17142;47.990;7.846;2024-03-22T07:53:22;4.53;;;3.90;;
30335;SDS011;17142;47.990;7.846;2024-03-22T07:55:51;5.70;;;3.80;;
30335;SDS011;17142;47.990;7.846;2024-03-22T07:58:16;7.60;;;4.60;;
30335;SDS011;17142;47.990;7.846;2024-03-22T08:00:42;9.33;;;3.80;;
30335;SDS011;17142;47.990;7.846;2024-03-22T08:03:08;4.00;;;3.57;;
30335;SDS011;17142;47.990;7.846;2024-03-22T08:05:42;7.63;;;3.17;;
30335;SDS011;17142;47.990;7.846;2024-03-22T08:08:08;7.90;;;4.27;;
30335;SDS011;17142;47.990;7.846;2024-03-22T08:10:36;4.73;;;4.10;;
30335;SDS011;17142;47.990;7.846;2024-03-22T08:13:05;6.20;;;5.60;;
30335;SDS011;17142;47.990;7.846;2024-03-22T08:15:30;7.60;;;5.30;;
30335;SDS011;17142;47.990;7.846;2024-03-22T08:17:56;6.60;;;5.13;;
30335;SDS011;17142;47.990;7.846;2024-03-22T08:20:30;9.97;;;5.53;;
30335;SDS011;17142;47.990;7.846;2024-03-22T08:23:01;6.90;;;5.83;;
30335;SDS011;17142;47.990;7.846;2024-03-22T08:25:26;7.10;;;5.07;;
30335;SDS011;17142;47.990;7.846;2024-03-22T08:27:52;8.00;;;4.80;;
30335;SDS011;17142;47.990;7.846;2024-03-22T08:30:20;7.67;;;5.20;;
30335;SDS011;17142;47.990;7.846;2024-03-22T08:32:46;6.20;;;4.40;;
30335;SDS011;17142;47.990;7.846;2024-03-22T08:35:14;4.93;;;4.43;;
30335;SDS011;17142;47.990;7.846;2024-03-22T08:37:42;6.13;;;4.83;;
30335;SDS011;17142;47.990;7.846;2024-03-22T08:40:08;5.73;;;4.93;;
30335;SDS011;17142;47.990;7.846;2024-03-22T08:42:37;6.30;;;3.80;;
30335;SDS011;17142;47.990;7.846;2024-03-22T08:45:03;7.13;;;4.67;;
30335;SDS011;17142;47.990;7.846;2024-03-22T08:47:34;5.00;;;4.37;;
30335;SDS011;17142;47.990;7.846;2024-03-22T08:50:15;5.83;;;4.67;;
30335;SDS011;17142;47.990;7.846;2024-03-22T08:52:41;6.47;;;3.63;;
30335;SDS011;17142;47.990;7.846;2024-03-22T08:55:12;8.43;;;5.03;;
30335;SDS011;17142;47.990;7.846;2024-03-22T08:57:38;4.73;;;3.53;;
30335;SDS011;17142;47.990;7.846;2024-03-22T09:00:04;11.67;;;4.67;;
30335;SDS011;17142;47.990;7.846;2024-03-22T09:02:38;11.13;;;3.90;;
30335;SDS011;17142;47.990;7.846;2024-03-22T09:05:06;4.50;;;4.10;;
30335;SDS011;17142;47.990;7.846;2024-03-22T09:07:33;4.70;;;3.30;;
30335;SDS011;17142;47.990;7.846;2024-03-22T09:10:04;5.80;;;5.10;;
30335;SDS011;17142;47.990;7.846;2024-03-22T09:12:31;6.60;;;4.50;;
30335;SDS011;17142;47.990;7.846;2024-03-22T09:15:00;7.10;;;4.70;;
30335;SDS011;17142;47.990;7.846;2024-03-22T09:17:26;7.83;;;4.90;;
30335;SDS011;17142;47.990;7.846;2024-03-22T09:19:55;4.87;;;4.10;;
30335;SDS011;17142;47.990;7.846;2024-03-22T09:22:20;5.10;;;3.40;;
30335;SDS011;17142;47.990;7.846;2024-03-22T09:24:47;5.10;;;3.60;;
30335;SDS011;17142;47.990;7.846;2024-03-22T09:27:15;5.50;;;3.77;;
30335;SDS011;17142;47.990;7.846;2024-03-22T09:29:43;7.83;;;4.37;;
30335;SDS011;17142;47.990;7.846;2024-03-22T09:32:08;6.80;;;3.90;;
30335;SDS011;17142;47.990;7.846;2024-03-22T09:34:36;6.37;;;4.20;;
30335;SDS011;17142;47.990;7.846;2024-03-22T09:37:05;4.47;;;4.07;;
30335;SDS011;17142;47.990;7.846;2024-03-22T09:39:33;8.17;;;4.30;;
30335;SDS011;17142;47.990;7.846;2024-03-22T09:41:59;4.17;;;3.60;;
30335;SDS011;17142;47.990;7.846;2024-03-22T09:44:32;6.00;;;3.57;;
30335;SDS011;17142;47.990;7.846;2024-03-22T09:46:58;4.97;;;3.20;;
30335;SDS011;17142;47.990;7.846;2024-03-22T09:49:27;5.70;;;3.30;;
30335;SDS011;17142;47.990;7.846;2024-03-22T09:51:53;5.03;;;3.40;;
30335;SDS011;17142;47.990;7.846;2024-03-22T09:54:19;4.13;;;3.13;;
30335;SDS011;17142;47.990;7.846;2024-03-22T09:56:52;5.03;;;4.03;;
30335;SDS011;17142;47.990;7.846;2024-03-22T09:59:23;12.07;;;5.97;;
30335;SDS011;17142;47.990;7.846;2024-03-22T10:01:49;9.07;;;5.33;;
30335;SDS011;17142;47.990;7.846;2024-03-22T10:04:16;5.73;;;4.63;;
30335;SDS011;17142;47.990;7.846;2024-03-22T10:06:45;6.97;;;5.10;;
30335;SDS011;17142;47.990;7.846;2024-03-22T10:09:13;5.37;;;4.17;;
30335;SDS011;17142;47.990;7.846;2024-03-22T10:11:45;4.83;;;4.33;;
30335;SDS011;17142;47.990;7.846;2024-03-22T10:14:12;8.03;;;3.87;;
30335;SDS011;17142;47.990;7.846;2024-03-22T10:16:38;6.10;;;4.50;;
30335;SDS011;17142;47.990;7.846;2024-03-22T10:19:04;10.70;;;6.90;;
30335;SDS011;17142;47.990;7.846;2024-03-22T10:21:29;7.73;;;4.43;;
30335;SDS011;17142;47.990;7.846;2024-03-22T10:24:03;5.63;;;5.10;;
30335;SDS011;17142;47.990;7.846;2024-03-22T10:26:33;6.23;;;4.60;;
30335;SDS011;17142;47.990;7.846;2024-03-22T10:28:58;4.27;;;2.93;;
30335;SDS011;17142;47.990;7.846;2024-03-22T10:31:24;7.63;;;5.17;;
30335;SDS011;17142;47.990;7.846;2024-03-22T10:33:51;4.60;;;3.83;;
30335;SDS011;17142;47.990;7.846;2024-03-22T10:36:19;5.23;;;3.37;;
30335;SDS011;17142;47.990;7.846;2024-03-22T10:38:48;5.47;;;3.53;;
30335;SDS011;17142;47.990;7.846;2024-03-22T10:41:24;5.57;;;3.83;;
30335;SDS011;17142;47.990;7.846;2024-03-22T10:43:53;3.90;;;2.73;;
30335;SDS011;17142;47.990;7.846;2024-03-22T10:46:23;4.47;;;3.80;;
30335;SDS011;17142;47.990;7.846;2024-03-22T10:48:54;3.73;;;3.10;;
30335;SDS011;17142;47.990;7.846;2024-03-22T10:51:23;3.80;;;3.27;;
30335;SDS011;17142;47.990;7.846;2024-03-22T10:53:53;4.07;;;3.53;;
30335;SDS011;17142;47.990;7.846;2024-03-22T10:56:23;4.37;;;3.20;;
30335;SDS011;17142;47.990;7.846;2024-03-22T10:58:54;8.30;;;4.10;;
30335;SDS011;17142;47.990;7.846;2024-03-22T11:01:24;4.60;;;3.30;;
30335;SDS011;17142;47.990;7.846;2024-03-22T11:04:08;6.50;;;4.93;;
30335;SDS011;17142;47.990;7.846;2024-03-22T11:06:37;3.43;;;2.83;;
30335;SDS011;17142;47.990;7.846;2024-03-22T11:09:03;4.50;;;3.43;;
30335;SDS011;17142;47.990;7.846;2024-03-22T11:11:35;5.67;;;3.77;;
30335;SDS011;17142;47.990;7.846;2024-03-22T11:14:03;6.20;;;4.80;;
30335;SDS011;17142;47.990;7.846;2024-03-22T11:16:32;5.40;;;2.47;;
30335;SDS011;17142;47.990;7.846;2024-03-22T11:19:00;3.17;;;2.87;;
30335;SDS011;17142;47.990;7.846;2024-03-22T11:21:28;5.40;;;3.30;;
30335;SDS011;17142;47.990;7.846;2024-03-22T11:23:55;3.40;;;2.90;;
30335;SDS011;17142;47.990;7.846;2024-03-22T11:26:21;6.23;;;2.50;;
30335;SDS011;17142;47.990;7.846;2024-03-22T11:28:49;2.73;;;2.33;;
30335;SDS011;17142;47.990;7.846;2024-03-22T11:31:17;3.13;;;2.17;;
30335;SDS011;17142;47.990;7.846;2024-03-22T11:33:45;4.73;;;2.20;;
30335;SDS011;17142;47.990;7.846;2024-03-22T11:36:11;3.60;;;2.10;;
30335;SDS011;17142;47.990;7.846;2024-03-22T11:38:36;3.77;;;2.63;;
30335;SDS011;17142;47.990;7.846;2024-03-22T11:41:04;2.30;;;1.63;;
30335;SDS011;17142;47.990;7.846;2024-03-22T11:43:36;2.03;;;1.93;;
30335;SDS011;17142;47.990;7.846;2024-03-22T11:46:02;2.60;;;1.50;;
30335;SDS011;17142;47.990;7.846;2024-03-22T11:48:28;4.13;;;1.70;;
30335;SDS011;17142;47.990;7.846;2024-03-22T11:50:56;3.37;;;2.30;;
30335;SDS011;17142;47.990;7.846;2024-03-22T11:53:25;1.63;;;1.20;;
30335;SDS011;17142;47.990;7.846;2024-03-22T11:55:51;2.60;;;1.10;;
30335;SDS011;17142;47.990;7.846;2024-03-22T11:58:18;1.33;;;1.10;;
30335;SDS011;17142;47.990;7.846;2024-03-22T12:00:43;3.83;;;2.83;;
30335;SDS011;17142;47.990;7.846;2024-03-22T12:03:12;2.90;;;1.97;;
30335;SDS011;17142;47.990;7.846;2024-03-22T17:18:11;2.50;;;1.60;;
30335;SDS011;17142;47.990;7.846;2024-03-22T17:20:37;6.93;;;1.63;;
30335;SDS011;17142;47.990;7.846;2024-03-22T17:23:04;2.40;;;1.73;;
30335;SDS011;17142;47.990;7.846;2024-03-22T17:25:32;6.00;;;1.40;;
30335;SDS011;17142;47.990;7.846;2024-03-22T17:28:01;3.97;;;1.10;;
30335;SDS011;17142;47.990;7.846;2024-03-22T17:30:27;2.17;;;1.40;;
30335;SDS011;17142;47.990;7.846;2024-03-22T17:32:53;2.73;;;1.30;;
30335;SDS011;17142;47.990;7.846;2024-03-22T17:35:21;4.50;;;2.07;;
30335;SDS011;17142;47.990;7.846;2024-03-22T17:37:46;2.30;;;2.07;;
30335;SDS011;17142;47.990;7.846;2024-03-22T17:40:13;1.63;;;1.53;;
30335;SDS011;17142;47.990;7.846;2024-03-22T17:42:40;2.70;;;1.40;;
30335;SDS011;17142;47.990;7.846;2024-03-22T17:45:06;2.80;;;1.60;;
30335;SDS011;17142;47.990;7.846;2024-03-22T17:47:32;3.90;;;1.93;;
30335;SDS011;17142;47.990;7.846;2024-03-22T17:50:00;3.37;;;2.33;;
30335;SDS011;17142;47.990;7.846;2024-03-22T17:52:29;2.57;;;1.57;;
30335;SDS011;17142;47.990;7.846;2024-03-22T17:54:55;4.07;;;1.93;;
30335;SDS011;17142;47.990;7.846;2024-03-22T17:57:23;4.00;;;3.10;;
30335;SDS011;17142;47.990;7.846;2024-03-22T17:59:49;2.97;;;1.30;;
30335;SDS011;17142;47.990;7.846;2024-03-22T18:02:15;2.13;;;1.80;;
30335;SDS011;17142;47.990;7.846;2024-03-22T18:04:40;2.93;;;1.83;;
30335;SDS011;17142;47.990;7.846;2024-03-22T18:07:08;2.23;;;1.70;;
30335;SDS011;17142;47.990;7.846;2024-03-22T18:09:34;2.00;;;1.80;;
30335;SDS011;17142;47.990;7.846;2024-03-22T18:12:00;5.60;;;1.80;;
30335;SDS011;17142;47.990;7.846;2024-03-22T18:14:25;3.73;;;1.40;;
30335;SDS011;17142;47.990;7.846;2024-03-22T18:16:51;2.67;;;1.67;;
30335;SDS011;17142;47.990;7.846;2024-03-22T18:19:17;3.10;;;1.83;;
30335;SDS011;17142;47.990;7.846;2024-03-22T18:21:43;3.40;;;2.00;;
30335;SDS011;17142;47.990;7.846;2024-03-22T18:24:09;2.63;;;2.10;;
30335;SDS011;17142;47.990;7.846;2024-03-22T18:26:37;2.90;;;1.93;;
30335;SDS011;17142;47.990;7.846;2024-03-22T18:29:03;5.80;;;2.50;;
30335;SDS011;17142;47.990;7.846;2024-03-22T18:31:31;4.70;;;3.10;;
30335;SDS011;17142;47.990;7.846;2024-03-22T18:33:59;6.07;;;1.97;;
30335;SDS011;17142;47.990;7.846;2024-03-22T18:36:25;3.70;;;2.97;;
30335;SDS011;17142;47.990;7.846;2024-03-22T18:38:51;3.80;;;2.10;;
30335;SDS011;17142;47.990;7.846;2024-03-22T18:41:16;2.80;;;2.43;;
30335;SDS011;17142;47.990;7.846;2024-03-22T18:43:44;2.20;;;1.87;;
30335;SDS011;17142;47.990;7.846;2024-03-22T18:46:10;4.63;;;2.20;;
30335;SDS011;17142;47.990;7.846;2024-03-22T18:48:35;4.40;;;1.97;;
30335;SDS011;17142;47.990;7.846;2024-03-22T18:51:03;2.80;;;2.40;;
30335;SDS011;17142;47.990;7.846;2024-03-22T18:53:35;3.10;;;2.03;;
30335;SDS011;17142;47.990;7.846;2024-03-22T18:56:05;4.10;;;2.23;;
30335;SDS011;17142;47.990;7.846;2024-03-22T18:58:31;3.70;;;2.17;;
30335;SDS011;17142;47.990;7.846;2024-03-22T19:00:58;2.50;;;1.97;;
30335;SDS011;17142;47.990;7.846;2024-03-22T19:03:25;2.37;;;2.17;;
30335;SDS011;17142;47.990;7.846;2024-03-22T19:05:51;2.70;;;2.47;;
30335;SDS011;17142;47.990;7.846;2024-03-22T19:08:16;4.57;;;2.27;;
30335;SDS011;17142;47.990;7.846;2024-03-22T19:10:42;6.00;;;2.40;;
30335;SDS011;17142;47.990;7.846;2024-03-22T19:13:07;3.73;;;1.97;;
30335;SDS011;17142;47.990;7.846;2024-03-22T19:15:34;3.63;;;2.20;;
30335;SDS011;17142;47.990;7.846;2024-03-22T19:18:00;3.77;;;2.03;;
30335;SDS011;17142;47.990;7.846;2024-03-22T19:20:27;3.90;;;1.70;;
30335;SDS011;17142;47.990;7.846;2024-03-22T19:22:58;2.33;;;2.13;;
30335;SDS011;17142;47.990;7.846;2024-03-22T19:25:28;3.00;;;1.80;;
30335;SDS011;17142;47.990;7.846;2024-03-22T19:27:53;2.73;;;1.80;;
30335;SDS011;17142;47.990;7.846;2024-03-22T19:30:21;2.20;;;2.00;;
30335;SDS011;17142;47.990;7.846;2024-03-22T19:32:49;2.50;;;1.93;;
30335;SDS011;17142;47.990;7.846;2024-03-22T19:35:17;5.17;;;2.20;;
30335;SDS011;17142;47.990;7.846;2024-03-22T19:37:43;4.10;;;2.20;;
30335;SDS011;17142;47.990;7.846;2024-03-22T19:40:09;4.43;;;2.13;;
30335;SDS011;17142;47.990;7.846;2024-03-22T19:42:35;1.73;;;1.50;;
30335;SDS011;17142;47.990;7.846;2024-03-22T19:45:03;1.80;;;1.70;;
30335;SDS011;17142;47.990;7.846;2024-03-22T19:47:33;2.27;;;2.00;;
30335;SDS011;17142;47.990;7.846;2024-03-22T19:49:59;5.00;;;1.60;;
30335;SDS011;17142;47.990;7.846;2024-03-22T19:52:24;2.80;;;2.27;;
30335;SDS011;17142;47.990;7.846;2024-03-22T19:54:50;1.73;;;1.50;;
30335;SDS011;17142;47.990;7.846;2024-03-22T19:57:15;2.63;;;1.80;;
30335;SDS011;17142;47.990;7.846;2024-03-22T19:59:43;4.23;;;2.00;;
30335;SDS011;17142;47.990;7.846;2024-03-22T20:02:11;5.00;;;2.40;;
30335;SDS011;17142;47.990;7.846;2024-03-22T20:04:40;4.63;;;2.00;;
30335;SDS011;17142;47.990;7.846;2024-03-22T20:07:06;16.07;;;2.43;;